Rockport, Indiana
Current Conditions -  °F | °C
As of 4:56 PM on Tuesday 27 Jan 2015 (Local Time) from KOWB Reporting Station
Overcast Overcast  
Wind Chill: 30°   Ceiling: 1600
Heat Index: 34°   Visibility: 7mi
Dew Point: 30°   Wind: 5mph
Humidity: 85%   Direction: 350°N
Pressure: 30.2"   Gusts: NA
Location:  37.88°N, 87.05°W
Report Text: KOWB 272256Z 35004KT 7SM OVC016 01/M01 A3020 RMK AO2 T00111011 UPB2159E18 P0000 SLP229
Loading
Personal Weather Stations






























Interactive Weather Map New forecast layout! Learn more

10-Day Weather Forecast

Advertisements
Track Severe Weather on mobile